Back to Top

Language: 

My Weather Underground Personal Weather Station Historical Data with Graphs...

Delerius Weather Station Historical Data
Daily Summary for July 8, 2017 Units:  Metric    English   Both
« Previous Day
Next Day »
Daily Weekly Monthly Yearly Custom
  High: Low: Average:
Temperature: 23.1 °C 10.1 °C 17.3 °C
Dew Point: 13.8 °C 8.4 °C 10.7 °C
Humidity: 94 % 41 % 67 %
Wind Speed: 17.7 km/h 0 km/h 8.5 km/h
Wind Gust: 32.2 km/h - -
Wind:- - WNW
Pressure: 1019.2 hPa 1015.8 hPa -
Precipitation: 0 mm    
Historical Graphs
 
 
Tabular Data for July 8, 2017
Time Temperature Dew Point Pressure Wind Wind Speed Wind Gust Humidity Rainfall Rate (Hourly) solar Conditions
00:00 16 °C 13.8 °C 1016.8 hPa WNW 9.7 km/h 17.7 km/h 87 % 0 mm 0 W/m2
00:05 16 °C 13.8 °C 1016.8 hPa WNW 9.7 km/h 16.1 km/h 87 % 0 mm 0 W/m2
00:10 16 °C 13.8 °C 1016.8 hPa WNW 8 km/h 14.5 km/h 87 % 0 mm 0 W/m2
00:15 16 °C 13.8 °C 1016.8 hPa WNW 8 km/h 14.5 km/h 87 % 0 mm 0 W/m2
00:20 16 °C 13.8 °C 1016.8 hPa WNW 8 km/h 12.9 km/h 87 % 0 mm 0 W/m2
00:25 15.9 °C 13.7 °C 1016.8 hPa WNW 8 km/h 12.9 km/h 87 % 0 mm 0 W/m2
00:30 15.9 °C 13.7 °C 1016.8 hPa WNW 8 km/h 14.5 km/h 87 % 0 mm 0 W/m2
00:35 15.8 °C 13.7 °C 1016.8 hPa WNW 8 km/h 14.5 km/h 87 % 0 mm 0 W/m2
00:40 15.8 °C 13.7 °C 1016.8 hPa WNW 6.4 km/h 14.5 km/h 87 % 0 mm 0 W/m2
00:45 15.7 °C 13.6 °C 1016.8 hPa West 6.4 km/h 12.9 km/h 87 % 0 mm 0 W/m2
00:50 15.6 °C 13.4 °C 1016.8 hPa West 6.4 km/h 14.5 km/h 87 % 0 mm 0 W/m2
00:55 15.5 °C 13.5 °C 1016.8 hPa West 6.4 km/h 14.5 km/h 88 % 0 mm 0 W/m2
01:00 15.4 °C 13.2 °C 1016.8 hPa WNW 8 km/h 16.1 km/h 87 % 0 mm 0 W/m2
01:05 15.3 °C 13.2 °C 1016.8 hPa WNW 9.7 km/h 16.1 km/h 87 % 0 mm 0 W/m2
01:06 15.3 °C 13.2 °C 1016.8 hPa WNW 9.7 km/h 16.1 km/h 87 % 0 mm 0 W/m2
01:11 15.2 °C 13.1 °C 1016.8 hPa WNW 11.3 km/h 17.7 km/h 87 % 0 mm 0 W/m2
01:16 15.2 °C 13.1 °C 1016.8 hPa WNW 9.7 km/h 17.7 km/h 87 % 0 mm 0 W/m2
01:21 15.2 °C 12.9 °C 1017.2 hPa WNW 8 km/h 14.5 km/h 86 % 0 mm 0 W/m2
01:26 15.2 °C 12.7 °C 1017.2 hPa WNW 8 km/h 16.1 km/h 85 % 0 mm 0 W/m2
01:31 15.2 °C 12.7 °C 1017.2 hPa WNW 8 km/h 16.1 km/h 85 % 0 mm 0 W/m2
01:36 15.1 °C 12.6 °C 1017.2 hPa West 6.4 km/h 14.5 km/h 85 % 0 mm 0 W/m2
01:41 14.9 °C 12.4 °C 1017.2 hPa West 6.4 km/h 12.9 km/h 85 % 0 mm 0 W/m2
01:46 14.8 °C 12.3 °C 1017.2 hPa West 6.4 km/h 12.9 km/h 85 % 0 mm 0 W/m2
01:51 14.6 °C 12.1 °C 1017.2 hPa WNW 6.4 km/h 12.9 km/h 85 % 0 mm 0 W/m2
01:56 14.4 °C 11.7 °C 1017.2 hPa WNW 6.4 km/h 16.1 km/h 84 % 0 mm 0 W/m2
02:01 14.3 °C 11.6 °C 1017.2 hPa WNW 6.4 km/h 16.1 km/h 84 % 0 mm 0 W/m2
02:06 14.1 °C 11.4 °C 1017.5 hPa WNW 6.4 km/h 14.5 km/h 84 % 0 mm 0 W/m2
02:11 13.9 °C 11.2 °C 1017.5 hPa NW 8 km/h 14.5 km/h 84 % 0 mm 0 W/m2
02:16 13.8 °C 11.2 °C 1017.5 hPa NW 9.7 km/h 17.7 km/h 84 % 0 mm 0 W/m2
02:21 13.7 °C 11.2 °C 1017.5 hPa NW 11.3 km/h 19.3 km/h 85 % 0 mm 0 W/m2
02:26 13.6 °C 11.1 °C 1017.5 hPa NW 9.7 km/h 19.3 km/h 85 % 0 mm 0 W/m2
02:31 13.4 °C 10.9 °C 1017.5 hPa NW 9.7 km/h 17.7 km/h 85 % 0 mm 0 W/m2
02:36 13.3 °C 11 °C 1017.5 hPa NW 8 km/h 14.5 km/h 86 % 0 mm 0 W/m2
02:41 13.2 °C 10.9 °C 1017.5 hPa NW 8 km/h 12.9 km/h 86 % 0 mm 0 W/m2
02:46 13.1 °C 10.8 °C 1017.5 hPa WNW 4.8 km/h 12.9 km/h 86 % 0 mm 0 W/m2
02:51 13 °C 10.7 °C 1017.8 hPa NW 3.2 km/h 11.3 km/h 86 % 0 mm 0 W/m2
02:56 12.9 °C 10.8 °C 1017.8 hPa WNW 4.8 km/h 12.9 km/h 87 % 0 mm 0 W/m2
03:02 12.8 °C 10.7 °C 1017.8 hPa WNW 8 km/h 14.5 km/h 87 % 0 mm 0 W/m2
03:07 12.7 °C 10.6 °C 1017.8 hPa WNW 8 km/h 14.5 km/h 87 % 0 mm 0 W/m2
03:12 12.6 °C 10.5 °C 1017.8 hPa WNW 6.4 km/h 14.5 km/h 87 % 0 mm 0 W/m2
03:17 12.5 °C 10.6 °C 1017.8 hPa NW 4.8 km/h 12.9 km/h 88 % 0 mm 0 W/m2
03:22 12.4 °C 10.4 °C 1017.8 hPa NW 4.8 km/h 9.7 km/h 88 % 0 mm 0 W/m2
03:27 12.3 °C 10.4 °C 1017.8 hPa NW 4.8 km/h 9.7 km/h 88 % 0 mm 0 W/m2
03:32 12.2 °C 10.4 °C 1017.8 hPa NW 4.8 km/h 8 km/h 89 % 0 mm 0 W/m2
03:37 12.2 °C 10.3 °C 1017.8 hPa NW 3.2 km/h 8 km/h 88 % 0 mm 0 W/m2
03:42 12.1 °C 10.2 °C 1017.8 hPa NW 1.6 km/h 4.8 km/h 88 % 0 mm 0 W/m2
03:47 11.9 °C 10.2 °C 1017.8 hPa Calm   3.2 km/h 89 % 0 mm 0 W/m2
03:52 11.8 °C 10.1 °C 1017.8 hPa NW 1.6 km/h 6.4 km/h 89 % 0 mm 0 W/m2
03:57 11.7 °C 9.9 °C 1017.8 hPa NW 1.6 km/h 6.4 km/h 89 % 0 mm 0 W/m2
04:02 11.5 °C 9.7 °C 1017.8 hPa Calm   4.8 km/h 89 % 0 mm 0 W/m2
04:07 11.4 °C 9.7 °C 1017.8 hPa Calm   1.6 km/h 89 % 0 mm 0 W/m2
04:12 11.2 °C 9.6 °C 1017.8 hPa Calm   1.6 km/h 90 % 0 mm 0 W/m2
04:17 11.1 °C 9.5 °C 1017.8 hPa Calm     90 % 0 mm 0 W/m2
04:22 10.9 °C 9.3 °C 1017.8 hPa Calm     90 % 0 mm 0 W/m2
04:28 10.8 °C 9.2 °C 1017.8 hPa Calm     90 % 0 mm 0 W/m2
04:33 10.7 °C 9.3 °C 1017.8 hPa Calm   6.4 km/h 91 % 0 mm 0 W/m2
04:38 10.7 °C 9.3 °C 1017.8 hPa NW 1.6 km/h 8 km/h 91 % 0 mm 0 W/m2
04:43 10.6 °C 9.3 °C 1017.8 hPa NW 3.2 km/h 8 km/h 92 % 0 mm 0 W/m2
04:48 10.6 °C 9.3 °C 1017.8 hPa NW 3.2 km/h 8 km/h 92 % 0 mm 5 W/m2
04:53 10.5 °C 9.3 °C 1018.2 hPa NW 3.2 km/h 6.4 km/h 92 % 0 mm 5 W/m2
04:58 10.5 °C 9.3 °C 1018.2 hPa NW 4.8 km/h 8 km/h 92 % 0 mm 7 W/m2
05:03 10.4 °C 9.2 °C 1018.2 hPa NW 4.8 km/h 8 km/h 92 % 0 mm 9 W/m2
05:08 10.3 °C 9.1 °C 1018.2 hPa NW 3.2 km/h 8 km/h 92 % 0 mm 11 W/m2
05:13 10.3 °C 9.1 °C 1018.2 hPa NW 3.2 km/h 8 km/h 92 % 0 mm 11 W/m2
05:18 10.2 °C 8.9 °C 1018.2 hPa NW 3.2 km/h 8 km/h 92 % 0 mm 12 W/m2
05:23 10.2 °C 8.9 °C 1018.2 hPa NW 3.2 km/h 8 km/h 92 % 0 mm 14 W/m2
05:28 10.1 °C 8.8 °C 1018.2 hPa NW 3.2 km/h 8 km/h 92 % 0 mm 16 W/m2
05:33 10.1 °C 9 °C 1018.2 hPa NW 1.6 km/h 6.4 km/h 93 % 0 mm 18 W/m2
05:38 10.1 °C 9 °C 1018.2 hPa Calm   6.4 km/h 93 % 0 mm 19 W/m2
05:43 10.1 °C 9 °C 1018.5 hPa Calm   1.6 km/h 93 % 0 mm 23 W/m2
05:48 10.1 °C 9 °C 1018.5 hPa Calm   1.6 km/h 93 % 0 mm 23 W/m2
05:53 10.1 °C 9 °C 1018.5 hPa Calm   1.6 km/h 93 % 0 mm 25 W/m2
05:58 10.1 °C 9 °C 1018.5 hPa Calm     93 % 0 mm 23 W/m2
06:03 10.2 °C 9.1 °C 1018.5 hPa Calm     93 % 0 mm 109 W/m2
06:08 10.2 °C 9.1 °C 1018.5 hPa Calm     93 % 0 mm 123 W/m2
06:09 10.2 °C 9.1 °C 1018.5 hPa Calm     93 % 0 mm 123 W/m2
06:14 10.3 °C 9.4 °C 1018.5 hPa Calm     94 % 0 mm 72 W/m2
06:19 10.7 °C 9.8 °C 1018.5 hPa NW 1.6 km/h 6.4 km/h 94 % 0 mm 53 W/m2
06:24 10.9 °C 9.8 °C 1018.5 hPa NW 3.2 km/h 8 km/h 93 % 0 mm 33 W/m2
06:29 11.1 °C 10 °C 1018.5 hPa NW 1.6 km/h 8 km/h 93 % 0 mm 51 W/m2
06:34 11.3 °C 10.1 °C 1018.5 hPa NW 3.2 km/h 8 km/h 92 % 0 mm 26 W/m2
06:39 11.4 °C 10.2 °C 1018.5 hPa NW 3.2 km/h 8 km/h 92 % 0 mm 32 W/m2
06:44 11.6 °C 10.3 °C 1018.5 hPa WNW 3.2 km/h 11.3 km/h 92 % 0 mm 35 W/m2
06:49 11.7 °C 10.3 °C 1018.5 hPa WNW 4.8 km/h 11.3 km/h 91 % 0 mm 30 W/m2
06:54 11.8 °C 10.2 °C 1018.5 hPa WNW 4.8 km/h 9.7 km/h 90 % 0 mm 30 W/m2
06:59 12 °C 10.2 °C 1018.5 hPa WNW 4.8 km/h 11.3 km/h 89 % 0 mm 32 W/m2
07:04 12.1 °C 10.2 °C 1018.5 hPa WNW 4.8 km/h 11.3 km/h 88 % 0 mm 32 W/m2
07:09 12.3 °C 10.2 °C 1018.5 hPa WNW 3.2 km/h 12.9 km/h 87 % 0 mm 35 W/m2
07:14 12.5 °C 10.2 °C 1018.5 hPa WNW 4.8 km/h 12.9 km/h 86 % 0 mm 39 W/m2
07:19 12.7 °C 10.2 °C 1018.8 hPa WNW 4.8 km/h 12.9 km/h 85 % 0 mm 72 W/m2
07:24 12.9 °C 10.1 °C 1018.8 hPa NW 8 km/h 17.7 km/h 83 % 0 mm 290 W/m2
07:29 13.3 °C 10.1 °C 1018.8 hPa WNW 8 km/h 17.7 km/h 81 % 0 mm 308 W/m2
07:34 13.6 °C 10 °C 1018.8 hPa WNW 8 km/h 14.5 km/h 79 % 0 mm 325 W/m2
07:39 14.1 °C 10.3 °C 1018.8 hPa NW 6.4 km/h 14.5 km/h 78 % 0 mm 339 W/m2
07:44 14.6 °C 10.4 °C 1018.8 hPa NW 4.8 km/h 12.9 km/h 76 % 0 mm 355 W/m2
07:49 14.9 °C 10.1 °C 1018.8 hPa NW 6.4 km/h 12.9 km/h 73 % 0 mm 369 W/m2
07:54 15.3 °C 10.5 °C 1018.8 hPa NW 3.2 km/h 12.9 km/h 73 % 0 mm 381 W/m2
07:59 15.7 °C 10 °C 1018.8 hPa NNW 4.8 km/h 12.9 km/h 69 % 0 mm 399 W/m2
08:04 15.9 °C 10 °C 1018.8 hPa NNW 6.4 km/h 19.3 km/h 68 % 0 mm 417 W/m2
08:09 16.1 °C 9.9 °C 1018.8 hPa NW 8 km/h 19.3 km/h 67 % 0 mm 432 W/m2
08:14 16.4 °C 10.1 °C 1018.8 hPa NW 6.4 km/h 14.5 km/h 66 % 0 mm 445 W/m2
08:19 16.7 °C 10.1 °C 1018.8 hPa NW 6.4 km/h 14.5 km/h 65 % 0 mm 461 W/m2
08:24 16.8 °C 9.5 °C 1018.8 hPa NW 8 km/h 16.1 km/h 62 % 0 mm 476 W/m2
08:29 16.6 °C 9.1 °C 1018.8 hPa WNW 9.7 km/h 17.7 km/h 61 % 0 mm 417 W/m2
08:34 16.7 °C 9.4 °C 1018.8 hPa WNW 9.7 km/h 17.7 km/h 62 % 0 mm 418 W/m2
08:39 16.9 °C 9.3 °C 1018.8 hPa NW 8 km/h 16.1 km/h 61 % 0 mm 517 W/m2
08:44 17.1 °C 9 °C 1018.8 hPa NW 9.7 km/h 19.3 km/h 59 % 0 mm 457 W/m2
08:49 17.1 °C 8.5 °C 1018.8 hPa WNW 11.3 km/h 19.3 km/h 57 % 0 mm 566 W/m2
08:54 17.1 °C 8.8 °C 1019.2 hPa WNW 11.3 km/h 19.3 km/h 58 % 0 mm 570 W/m2
08:59 16.8 °C 8.7 °C 1019.2 hPa NW 11.3 km/h 22.5 km/h 59 % 0 mm 592 W/m2
09:04 16.8 °C 8.7 °C 1019.2 hPa NW 12.9 km/h 22.5 km/h 59 % 0 mm 541 W/m2
09:09 16.9 °C 9.1 °C 1018.8 hPa NNW 12.9 km/h 20.9 km/h 60 % 0 mm 638 W/m2
09:14 17.1 °C 9 °C 1018.8 hPa NNW 11.3 km/h 20.9 km/h 59 % 0 mm 621 W/m2
09:19 17.3 °C 9.2 °C 1018.8 hPa NW 9.7 km/h 19.3 km/h 59 % 0 mm 703 W/m2
09:24 17.5 °C 9.4 °C 1018.8 hPa NW 11.3 km/h 20.9 km/h 59 % 0 mm 715 W/m2
09:29 17.8 °C 9.4 °C 1018.8 hPa NW 11.3 km/h 24.1 km/h 58 % 0 mm 703 W/m2
09:34 17.9 °C 9.5 °C 1018.8 hPa NW 11.3 km/h 24.1 km/h 58 % 0 mm 700 W/m2
09:39 18.1 °C 8.9 °C 1018.8 hPa NW 12.9 km/h 24.1 km/h 55 % 0 mm 696 W/m2
09:44 18 °C 9.1 °C 1018.8 hPa NW 12.9 km/h 24.1 km/h 56 % 0 mm 707 W/m2
09:49 18.1 °C 8.9 °C 1018.8 hPa WNW 12.9 km/h 25.7 km/h 55 % 0 mm 698 W/m2
09:54 17.9 °C 8.4 °C 1018.8 hPa WNW 16.1 km/h 29 km/h 54 % 0 mm 714 W/m2
09:59 17.8 °C 8.6 °C 1018.8 hPa WNW 16.1 km/h 29 km/h 55 % 0 mm 717 W/m2
10:04 18 °C 9.1 °C 1018.8 hPa WNW 14.5 km/h 25.7 km/h 56 % 0 mm 735 W/m2
10:09 18.2 °C 9 °C 1018.8 hPa WNW 11.3 km/h 22.5 km/h 55 % 0 mm 749 W/m2
10:14 18.4 °C 8.9 °C 1018.8 hPa WNW 11.3 km/h 25.7 km/h 54 % 0 mm 744 W/m2
10:19 18.4 °C 8.7 °C 1019.2 hPa WNW 12.9 km/h 25.7 km/h 53 % 0 mm 777 W/m2
10:24 18.3 °C 8.8 °C 1019.2 hPa WNW 14.5 km/h 24.1 km/h 54 % 0 mm 768 W/m2
10:29 18.2 °C 8.4 °C 1018.8 hPa WNW 16.1 km/h 24.1 km/h 53 % 0 mm 633 W/m2
10:34 18.2 °C 8.4 °C 1019.2 hPa WNW 12.9 km/h 24.1 km/h 53 % 0 mm 744 W/m2
10:39 18.4 °C 8.7 °C 1018.8 hPa NW 8 km/h 19.3 km/h 53 % 0 mm 693 W/m2
10:45 18.3 °C 8.8 °C 1018.8 hPa West 11.3 km/h 24.1 km/h 54 % 0 mm 814 W/m2
10:50 18.4 °C 9.2 °C 1019.2 hPa West 12.9 km/h 24.1 km/h 55 % 0 mm 803 W/m2
10:55 18.4 °C 8.4 °C 1019.2 hPa West 12.9 km/h 29 km/h 52 % 0 mm 824 W/m2
11:00 18.4 °C 8.7 °C 1019.2 hPa West 16.1 km/h 29 km/h 53 % 0 mm 823 W/m2
11:05 18.6 °C 8.8 °C 1018.8 hPa WNW 16.1 km/h 29 km/h 53 % 0 mm 835 W/m2
11:10 18.7 °C 8.9 °C 1018.8 hPa West 14.5 km/h 29 km/h 53 % 0 mm 863 W/m2
11:15 18.7 °C 8.6 °C 1018.8 hPa West 14.5 km/h 25.7 km/h 52 % 0 mm 844 W/m2
11:20 18.8 °C 8.7 °C 1019.2 hPa West 16.1 km/h 30.6 km/h 52 % 0 mm 853 W/m2
11:25 18.9 °C 8.6 °C 1018.8 hPa WNW 14.5 km/h 30.6 km/h 51 % 0 mm 809 W/m2
11:30 18.9 °C 9.1 °C 1018.8 hPa West 12.9 km/h 30.6 km/h 53 % 0 mm 784 W/m2
11:35 19.1 °C 8.7 °C 1018.8 hPa West 14.5 km/h 30.6 km/h 51 % 0 mm 788 W/m2
11:40 19.2 °C 9.1 °C 1018.8 hPa West 12.9 km/h 25.7 km/h 52 % 0 mm 798 W/m2
11:45 19.5 °C 8.8 °C 1018.8 hPa WNW 12.9 km/h 25.7 km/h 50 % 0 mm 733 W/m2
11:50 19.6 °C 8.9 °C 1018.8 hPa NW 14.5 km/h 25.7 km/h 50 % 0 mm 830 W/m2
11:55 19.7 °C 9 °C 1018.8 hPa NW 11.3 km/h 20.9 km/h 50 % 0 mm 911 W/m2
12:00 19.8 °C 9.4 °C 1018.8 hPa NW 9.7 km/h 20.9 km/h 51 % 0 mm 823 W/m2
12:05 20 °C 9.3 °C 1018.8 hPa NW 9.7 km/h 20.9 km/h 50 % 0 mm 858 W/m2
12:10 20.1 °C 9.7 °C 1018.8 hPa WNW 9.7 km/h 17.7 km/h 51 % 0 mm 659 W/m2
12:15 20.1 °C 9.7 °C 1018.8 hPa West 9.7 km/h 17.7 km/h 51 % 0 mm 991 W/m2
12:20 20.1 °C 9.1 °C 1018.8 hPa West 11.3 km/h 20.9 km/h 49 % 0 mm 898 W/m2
12:25 20.2 °C 9.2 °C 1018.8 hPa WNW 12.9 km/h 24.1 km/h 49 % 0 mm 937 W/m2
12:30 20.4 °C 9.6 °C 1018.8 hPa WNW 11.3 km/h 24.1 km/h 50 % 0 mm 949 W/m2
12:35 20.5 °C 9.4 °C 1018.8 hPa NW 8 km/h 17.7 km/h 49 % 0 mm 919 W/m2
12:40 20.5 °C 9.7 °C 1018.8 hPa NW 9.7 km/h 22.5 km/h 50 % 0 mm 933 W/m2
12:45 20.7 °C 9.9 °C 1018.8 hPa WNW 12.9 km/h 22.5 km/h 50 % 0 mm 884 W/m2
12:50 20.8 °C 9.7 °C 1018.5 hPa WNW 12.9 km/h 22.5 km/h 49 % 0 mm 849 W/m2
12:55 21.1 °C 10.3 °C 1018.8 hPa West 11.3 km/h 22.5 km/h 50 % 0 mm 898 W/m2
13:00 21.2 °C 10.1 °C 1018.5 hPa WNW 14.5 km/h 22.5 km/h 49 % 0 mm 858 W/m2
13:05 21 °C 9.6 °C 1018.5 hPa West 12.9 km/h 22.5 km/h 48 % 0 mm 714 W/m2
13:10 20.9 °C 9.8 °C 1018.5 hPa West 11.3 km/h 20.9 km/h 49 % 0 mm 909 W/m2
13:15 21.1 °C 10.6 °C 1018.5 hPa West 9.7 km/h 20.9 km/h 51 % 0 mm 963 W/m2
13:20 21.3 °C 9.8 °C 1018.5 hPa West 11.3 km/h 22.5 km/h 48 % 0 mm 708 W/m2
13:25 21.3 °C 9.5 °C 1018.5 hPa West 16.1 km/h 24.1 km/h 47 % 0 mm 770 W/m2
13:31 21.2 °C 9.7 °C 1018.5 hPa West 12.9 km/h 24.1 km/h 48 % 0 mm 967 W/m2
13:36 21.3 °C 9.8 °C 1018.5 hPa West 9.7 km/h 17.7 km/h 48 % 0 mm 833 W/m2
13:41 21.4 °C 9.9 °C 1018.5 hPa West 12.9 km/h 24.1 km/h 48 % 0 mm 868 W/m2
13:46 21.3 °C 10.2 °C 1018.2 hPa WSW 12.9 km/h 24.1 km/h 49 % 0 mm 888 W/m2
13:51 21.3 °C 10.2 °C 1018.2 hPa WSW 12.9 km/h 24.1 km/h 49 % 0 mm 872 W/m2
13:56 21.5 °C 9.7 °C 1018.2 hPa WSW 12.9 km/h 24.1 km/h 47 % 0 mm 918 W/m2
14:01 21.6 °C 9.5 °C 1018.2 hPa WSW 12.9 km/h 22.5 km/h 46 % 0 mm 833 W/m2
14:06 21.4 °C 9.6 °C 1018.2 hPa WSW 14.5 km/h 25.7 km/h 47 % 0 mm 946 W/m2
14:11 21.3 °C 9.5 °C 1018.2 hPa WSW 14.5 km/h 25.7 km/h 47 % 0 mm 905 W/m2
14:16 21.4 °C 10.2 °C 1018.2 hPa WSW 12.9 km/h 22.5 km/h 49 % 0 mm 849 W/m2
14:21 21.6 °C 10.1 °C 1017.8 hPa WSW 12.9 km/h 22.5 km/h 48 % 0 mm 817 W/m2
14:26 21.9 °C 10.1 °C 1017.8 hPa WSW 12.9 km/h 22.5 km/h 47 % 0 mm 715 W/m2
14:31 22.1 °C 9.6 °C 1017.8 hPa West 11.3 km/h 20.9 km/h 45 % 0 mm 758 W/m2
14:36 22.2 °C 9 °C 1017.8 hPa West 11.3 km/h 20.9 km/h 43 % 0 mm 824 W/m2
14:41 22.5 °C 8.9 °C 1017.8 hPa WNW 11.3 km/h 24.1 km/h 42 % 0 mm 844 W/m2
14:46 22.6 °C 9.1 °C 1017.8 hPa West 14.5 km/h 24.1 km/h 42 % 0 mm 698 W/m2
14:51 22.5 °C 8.6 °C 1017.8 hPa West 14.5 km/h 24.1 km/h 41 % 0 mm 824 W/m2
14:56 22.5 °C 9.3 °C 1017.8 hPa WNW 14.5 km/h 24.1 km/h 43 % 0 mm 777 W/m2
15:01 22.7 °C 9.8 °C 1017.8 hPa NW 14.5 km/h 24.1 km/h 44 % 0 mm 861 W/m2
15:06 22.6 °C 9.4 °C 1017.5 hPa NW 12.9 km/h 24.1 km/h 43 % 0 mm 649 W/m2
15:11 22.4 °C 9.6 °C 1017.5 hPa West 14.5 km/h 32.2 km/h 44 % 0 mm 782 W/m2
15:13 22.4 °C 9.6 °C 1017.5 hPa West 16.1 km/h 32.2 km/h 44 % 0 mm 824 W/m2
15:18 22.5 °C 9.6 °C 1017.5 hPa West 16.1 km/h 32.2 km/h 44 % 0 mm 749 W/m2
15:23 22.5 °C 9.6 °C 1017.5 hPa West 14.5 km/h 30.6 km/h 44 % 0 mm 800 W/m2
15:28 22.6 °C 9.7 °C 1017.5 hPa WNW 14.5 km/h 30.6 km/h 44 % 0 mm 761 W/m2
15:33 22.7 °C 10.2 °C 1017.5 hPa WNW 14.5 km/h 25.7 km/h 45 % 0 mm 777 W/m2
15:38 22.6 °C 9.7 °C 1017.5 hPa West 14.5 km/h 25.7 km/h 44 % 0 mm 694 W/m2
15:43 22.7 °C 9.8 °C 1017.5 hPa West 14.5 km/h 25.7 km/h 44 % 0 mm 680 W/m2
15:48 22.7 °C 9.8 °C 1017.5 hPa WNW 14.5 km/h 24.1 km/h 44 % 0 mm 738 W/m2
15:53 22.7 °C 9.8 °C 1017.5 hPa WNW 14.5 km/h 29 km/h 44 % 0 mm 696 W/m2
15:58 22.8 °C 10.2 °C 1017.5 hPa WNW 16.1 km/h 30.6 km/h 45 % 0 mm 726 W/m2
16:03 22.8 °C 10.6 °C 1017.5 hPa WNW 16.1 km/h 30.6 km/h 46 % 0 mm 712 W/m2
16:08 22.9 °C 10.7 °C 1017.5 hPa WNW 16.1 km/h 25.7 km/h 46 % 0 mm 635 W/m2
16:13 23 °C 10.8 °C 1017.5 hPa WNW 14.5 km/h 24.1 km/h 46 % 0 mm 654 W/m2
16:18 23 °C 11.1 °C 1017.5 hPa WNW 12.9 km/h 20.9 km/h 47 % 0 mm 643 W/m2
16:23 22.9 °C 11 °C 1017.2 hPa WNW 12.9 km/h 30.6 km/h 47 % 0 mm 536 W/m2
16:28 22.9 °C 11 °C 1017.2 hPa NW 14.5 km/h 30.6 km/h 47 % 0 mm 462 W/m2
16:33 22.9 °C 11.3 °C 1017.2 hPa WNW 12.9 km/h 24.1 km/h 48 % 0 mm 675 W/m2
16:38 22.9 °C 11.3 °C 1017.2 hPa WNW 12.9 km/h 19.3 km/h 48 % 0 mm 668 W/m2
16:43 23 °C 11.4 °C 1017.2 hPa WNW 12.9 km/h 22.5 km/h 48 % 0 mm 691 W/m2
16:48 23.1 °C 11.5 °C 1017.2 hPa NW 14.5 km/h 22.5 km/h 48 % 0 mm 207 W/m2
16:53 22.9 °C 11.6 °C 1017.2 hPa WNW 12.9 km/h 24.1 km/h 49 % 0 mm 645 W/m2
16:54 22.9 °C 11.6 °C 1016.8 hPa WNW 12.9 km/h 24.1 km/h 49 % 0 mm 645 W/m2
16:59 22.8 °C 11.2 °C 1017.2 hPa WNW 14.5 km/h 24.1 km/h 48 % 0 mm 199 W/m2
17:04 22.5 °C 11.6 °C 1016.8 hPa WNW 12.9 km/h 20.9 km/h 50 % 0 mm 232 W/m2
17:09 22.4 °C 11.4 °C 1016.8 hPa WNW 11.3 km/h 20.9 km/h 50 % 0 mm 214 W/m2
17:14 22.3 °C 11.7 °C 1016.8 hPa WNW 11.3 km/h 20.9 km/h 51 % 0 mm 225 W/m2
17:19 22.2 °C 11.6 °C 1016.8 hPa West 12.9 km/h 20.9 km/h 51 % 0 mm 163 W/m2
17:24 22.2 °C 12.2 °C 1016.8 hPa West 11.3 km/h 19.3 km/h 53 % 0 mm 211 W/m2
17:29 22.2 °C 11.9 °C 1016.8 hPa WNW 12.9 km/h 22.5 km/h 52 % 0 mm 197 W/m2
17:34 22.1 °C 11.8 °C 1016.8 hPa WNW 12.9 km/h 22.5 km/h 52 % 0 mm 151 W/m2
17:39 22.1 °C 12.1 °C 1016.5 hPa West 11.3 km/h 22.5 km/h 53 % 0 mm 158 W/m2
17:44 22.1 °C 12.1 °C 1016.5 hPa WNW 14.5 km/h 25.7 km/h 53 % 0 mm 139 W/m2
17:49 22.1 °C 12.1 °C 1016.5 hPa WNW 16.1 km/h 25.7 km/h 53 % 0 mm 202 W/m2
17:54 21.9 °C 11.9 °C 1016.5 hPa WNW 14.5 km/h 22.5 km/h 53 % 0 mm 218 W/m2
17:59 21.9 °C 11.9 °C 1016.5 hPa West 12.9 km/h 25.7 km/h 53 % 0 mm 174 W/m2
18:04 21.8 °C 11.8 °C 1016.5 hPa WNW 14.5 km/h 25.7 km/h 53 % 0 mm 163 W/m2
18:06 21.7 °C 12 °C 1016.5 hPa WNW 16.1 km/h 25.7 km/h 54 % 0 mm 408 W/m2
18:11 21.7 °C 12 °C 1016.5 hPa WNW 14.5 km/h 25.7 km/h 54 % 0 mm 125 W/m2
18:16 21.6 °C 11.9 °C 1016.5 hPa WNW 16.1 km/h 29 km/h 54 % 0 mm 148 W/m2
18:21 21.6 °C 11.9 °C 1016.1 hPa WNW 17.7 km/h 30.6 km/h 54 % 0 mm 329 W/m2
18:26 21.5 °C 11.8 °C 1016.1 hPa WNW 16.1 km/h 30.6 km/h 54 % 0 mm 406 W/m2
18:31 21.5 °C 12.1 °C 1016.1 hPa West 14.5 km/h 29 km/h 55 % 0 mm 123 W/m2
18:36 21.5 °C 12.1 °C 1016.1 hPa West 12.9 km/h 29 km/h 55 % 0 mm 183 W/m2
18:41 21.4 °C 12.5 °C 1016.1 hPa WNW 12.9 km/h 19.3 km/h 57 % 0 mm 302 W/m2
18:46 21.4 °C 12.5 °C 1016.1 hPa WNW 11.3 km/h 20.9 km/h 57 % 0 mm 285 W/m2
18:51 21.4 °C 12.3 °C 1016.1 hPa WNW 12.9 km/h 20.9 km/h 56 % 0 mm 227 W/m2
18:56 21.4 °C 12.5 °C 1016.1 hPa WNW 14.5 km/h 20.9 km/h 57 % 0 mm 258 W/m2
19:01 21.3 °C 12.4 °C 1016.1 hPa WNW 12.9 km/h 20.9 km/h 57 % 0 mm 299 W/m2
19:06 21.4 °C 12.5 °C 1016.1 hPa West 11.3 km/h 22.5 km/h 57 % 0 mm 304 W/m2
19:11 21.4 °C 12.5 °C 1016.5 hPa WNW 12.9 km/h 22.5 km/h 57 % 0 mm 169 W/m2
19:16 21.3 °C 12.4 °C 1016.5 hPa WNW 14.5 km/h 22.5 km/h 57 % 0 mm 258 W/m2
19:21 21.2 °C 12.6 °C 1016.5 hPa WNW 14.5 km/h 22.5 km/h 58 % 0 mm 227 W/m2
19:26 21.2 °C 12.3 °C 1016.5 hPa WNW 12.9 km/h 25.7 km/h 57 % 0 mm 204 W/m2
19:31 21.1 °C 12.5 °C 1016.5 hPa WNW 12.9 km/h 25.7 km/h 58 % 0 mm 218 W/m2
19:36 21.1 °C 12.5 °C 1016.5 hPa West 11.3 km/h 19.3 km/h 58 % 0 mm 178 W/m2
19:41 20.9 °C 12.6 °C 1016.5 hPa WNW 11.3 km/h 19.3 km/h 59 % 0 mm 63 W/m2
19:46 20.7 °C 12.4 °C 1016.5 hPa WNW 12.9 km/h 19.3 km/h 59 % 0 mm 174 W/m2
19:51 20.7 °C 12.7 °C 1016.5 hPa WNW 11.3 km/h 19.3 km/h 60 % 0 mm 163 W/m2
19:56 20.7 °C 12.7 °C 1016.5 hPa WNW 11.3 km/h 20.9 km/h 60 % 0 mm 151 W/m2
20:01 20.4 °C 12.6 °C 1016.5 hPa WNW 12.9 km/h 24.1 km/h 61 % 0 mm 141 W/m2
20:06 20.3 °C 12.8 °C 1016.5 hPa WNW 12.9 km/h 24.1 km/h 62 % 0 mm 76 W/m2
20:11 20 °C 12.5 °C 1016.5 hPa WNW 12.9 km/h 20.9 km/h 62 % 0 mm 56 W/m2
20:16 19.7 °C 12.2 °C 1016.5 hPa WNW 12.9 km/h 20.9 km/h 62 % 0 mm 46 W/m2
20:21 19.5 °C 12.3 °C 1016.5 hPa WNW 11.3 km/h 19.3 km/h 63 % 0 mm 47 W/m2
20:26 19.3 °C 12.3 °C 1016.5 hPa WNW 11.3 km/h 19.3 km/h 64 % 0 mm 40 W/m2
20:31 19.1 °C 12.1 °C 1016.1 hPa WNW 11.3 km/h 16.1 km/h 64 % 0 mm 37 W/m2
20:36 18.9 °C 11.9 °C 1016.1 hPa WNW 9.7 km/h 16.1 km/h 64 % 0 mm 35 W/m2
20:41 18.8 °C 12.1 °C 1016.1 hPa WNW 9.7 km/h 16.1 km/h 65 % 0 mm 35 W/m2
20:46 18.7 °C 12.2 °C 1016.1 hPa WNW 8 km/h 16.1 km/h 66 % 0 mm 33 W/m2
20:47 18.7 °C 12.2 °C 1016.1 hPa WNW 8 km/h 16.1 km/h 66 % 0 mm 33 W/m2
20:52 18.6 °C 12.1 °C 1016.1 hPa WNW 6.4 km/h 12.9 km/h 66 % 0 mm 30 W/m2
20:57 18.4 °C 11.9 °C 1016.1 hPa WNW 8 km/h 12.9 km/h 66 % 0 mm 25 W/m2
21:02 18.3 °C 12.1 °C 1016.1 hPa NW 6.4 km/h 11.3 km/h 67 % 0 mm 21 W/m2
21:07 18.2 °C 11.9 °C 1016.1 hPa WNW 4.8 km/h 9.7 km/h 67 % 0 mm 18 W/m2
21:12 18 °C 12 °C 1016.1 hPa WNW 3.2 km/h 9.7 km/h 68 % 0 mm 14 W/m2
21:17 17.8 °C 11.8 °C 1016.1 hPa WNW 3.2 km/h 8 km/h 68 % 0 mm 12 W/m2
21:22 17.7 °C 11.9 °C 1016.1 hPa WNW 1.6 km/h 8 km/h 69 % 0 mm 9 W/m2
21:27 17.5 °C 11.9 °C 1016.1 hPa WNW 1.6 km/h 8 km/h 70 % 0 mm 7 W/m2
21:28 17.5 °C 11.9 °C 1016.1 hPa WNW 1.6 km/h 8 km/h 70 % 0 mm 7 W/m2
21:33 17.3 °C 11.8 °C 1016.1 hPa WNW 1.6 km/h 4.8 km/h 70 % 0 mm 5 W/m2
21:38 17.2 °C 11.9 °C 1016.1 hPa Calm   4.8 km/h 71 % 0 mm 0 W/m2
21:43 17.1 °C 11.8 °C 1016.1 hPa Calm   3.2 km/h 71 % 0 mm 0 W/m2
21:48 16.9 °C 11.6 °C 1016.1 hPa Calm   3.2 km/h 71 % 0 mm 0 W/m2
21:53 16.8 °C 11.7 °C 1016.1 hPa Calm   1.6 km/h 72 % 0 mm 0 W/m2
21:58 16.7 °C 11.8 °C 1016.1 hPa Calm   1.6 km/h 73 % 0 mm 0 W/m2
22:03 16.5 °C 11.7 °C 1016.5 hPa Calm   1.6 km/h 73 % 0 mm 0 W/m2
22:08 16.3 °C 11.7 °C 1016.1 hPa Calm     74 % 0 mm 0 W/m2
22:13 16.2 °C 11.8 °C 1016.1 hPa Calm     75 % 0 mm 0 W/m2
22:18 16 °C 11.6 °C 1016.1 hPa Calm     75 % 0 mm 0 W/m2
22:23 15.8 °C 11.6 °C 1016.1 hPa Calm     76 % 0 mm 0 W/m2
22:28 15.7 °C 11.7 °C 1016.1 hPa Calm     77 % 0 mm 0 W/m2
22:33 15.7 °C 11.7 °C 1016.1 hPa Calm     77 % 0 mm 0 W/m2
22:38 15.6 °C 11.6 °C 1016.1 hPa Calm     77 % 0 mm 0 W/m2
22:43 15.5 °C 11.5 °C 1016.1 hPa Calm   4.8 km/h 77 % 0 mm 0 W/m2
22:48 15.3 °C 11.5 °C 1016.1 hPa Calm   4.8 km/h 78 % 0 mm 0 W/m2
22:53 15.2 °C 11.6 °C 1016.1 hPa Calm   6.4 km/h 79 % 0 mm 0 W/m2
22:58 15 °C 11.4 °C 1016.1 hPa Calm   6.4 km/h 79 % 0 mm 0 W/m2
23:03 14.9 °C 11.5 °C 1016.1 hPa Calm   6.4 km/h 80 % 0 mm 0 W/m2
23:08 14.8 °C 11.4 °C 1016.1 hPa WNW 1.6 km/h 6.4 km/h 80 % 0 mm 0 W/m2
23:13 14.7 °C 11.3 °C 1016.1 hPa WNW 3.2 km/h 9.7 km/h 80 % 0 mm 0 W/m2
23:18 14.6 °C 11.4 °C 1016.1 hPa WNW 4.8 km/h 9.7 km/h 81 % 0 mm 0 W/m2
23:23 14.6 °C 11.4 °C 1016.1 hPa WNW 6.4 km/h 9.7 km/h 81 % 0 mm 0 W/m2
23:28 14.5 °C 11.3 °C 1016.1 hPa WNW 4.8 km/h 9.7 km/h 81 % 0 mm 0 W/m2
23:33 14.4 °C 11.2 °C 1016.1 hPa WNW 3.2 km/h 8 km/h 81 % 0 mm 0 W/m2
23:38 14.4 °C 11.2 °C 1016.1 hPa WNW 3.2 km/h 8 km/h 81 % 0 mm 0 W/m2
23:43 14.3 °C 11.3 °C 1016.1 hPa WNW 3.2 km/h 8 km/h 82 % 0 mm 0 W/m2
23:48 14.2 °C 11.2 °C 1016.1 hPa WNW 1.6 km/h 8 km/h 82 % 0 mm 0 W/m2
23:53 14.1 °C 11.1 °C 1016.1 hPa Calm   3.2 km/h 82 % 0 mm 0 W/m2
23:58 13.9 °C 10.9 °C 1015.8 hPa Calm     82 % 0 mm 0 W/m2
Delerius-Weather
Compliments of Weather Underground - 2.25 mb

Data updates at regular intervals.